This is the latest recevied weather packets stored in our database for station/object K1LVA. If no packets are shown the sender has not sent any weather packets the latest 10 day(s).
| Time | Temp. | Humidity | Pressure | Rain* | Wind** | Luminosity | Snow |
|---|---|---|---|---|---|---|---|
| 1777734756 | 14.44° C | 99% | 1012.1 hPa | 0 mm | - | 71 W/m² | - |
| 1777734453 | 13.89° C | 99% | 1011.9 hPa | 0 mm | - | 124 W/m² | - |
| 1777734150 | 13.89° C | 99% | 1012.2 hPa | 0 mm | - | 82 W/m² | - |
| 1777733846 | 13.89° C | 99% | 1012.3 hPa | 0 mm | - | 61 W/m² | - |
| 1777733239 | 13.89° C | 99% | 1012.1 hPa | 1.27 mm | - | 168 W/m² | - |
| 1777732632 | 13.89° C | 99% | 1011.6 hPa | 1.78 mm | - | 317 W/m² | - |
| 1777732330 | 13.89° C | 99% | 1011.9 hPa | 3.05 mm | - | 153 W/m² | - |
| 1777732028 | 13.89° C | 99% | 1012.6 hPa | 3.05 mm | - | 95 W/m² | - |
| 1777731724 | 13.89° C | 99% | 1012.9 hPa | 3.05 mm | - | 76 W/m² | - |
| 1777731420 | 13.89° C | 99% | 1013 hPa | 3.05 mm | - | 86 W/m² | - |
| 1777731120 | 13.89° C | 99% | 1013.4 hPa | 3.05 mm | - | 67 W/m² | - |
| 1777730817 | 13.89° C | 99% | 1013.4 hPa | 3.05 mm | - | 42 W/m² | - |
| 1777730514 | 13.89° C | 99% | 1013.2 hPa | 3.05 mm | - | 54 W/m² | - |
| 1777730209 | 13.89° C | 99% | 1012.8 hPa | 3.05 mm | - | 69 W/m² | - |
| 1777729907 | 13.89° C | 99% | 1012.8 hPa | 1.78 mm | - | 44 W/m² | - |
| 1777729603 | 13.89° C | 99% | 1012.8 hPa | 0 mm | - | 36 W/m² | - |
| 1777729300 | 13.89° C | 99% | 1012.6 hPa | 0 mm | - | 34 W/m² | - |
| 1777728997 | 13.89° C | 99% | 1012.2 hPa | 0 mm | - | 16 W/m² | - |
| 1777728693 | 13.89° C | 99% | 1012 hPa | 0 mm | - | 19 W/m² | - |
| 1777728390 | 13.89° C | 99% | 1011.8 hPa | 0 mm | - | 33 W/m² | - |
| 1777728087 | 13.89° C | 99% | 1011.8 hPa | 0 mm | - | 47 W/m² | - |
| 1777727784 | 13.89° C | 99% | 1011.8 hPa | 0 mm | - | 45 W/m² | - |
| 1777727481 | 13.89° C | 99% | 1011.5 hPa | 1.78 mm | - | 44 W/m² | - |
| 1777727179 | 13.89° C | 99% | 1011.7 hPa | 1.78 mm | - | 45 W/m² | - |
| 1777726877 | 13.89° C | 99% | 1011.5 hPa | 0 mm | - | 26 W/m² | - |
* Rain latest hour (hover to see other rain measurements)
** Current wind speed in m/s (hover to see current wind gust speed)